sensor_id;sensor_type;location;lat;lon;timestamp;pressure;altitude;pressure_sealevel;temperature;humidity
7834;BME280;3962;42.696;23.354;2024-02-04T00:01:27;95550.84;;;3.33;79.37
7834;BME280;3962;42.696;23.354;2024-02-04T00:03:54;95553.28;;;3.36;79.63
7834;BME280;3962;42.696;23.354;2024-02-04T00:06:22;95548.13;;;3.35;80.36
7834;BME280;3962;42.696;23.354;2024-02-04T00:08:48;95545.56;;;3.33;79.99
7834;BME280;3962;42.696;23.354;2024-02-04T00:11:15;95554.53;;;3.31;80.13
7834;BME280;3962;42.696;23.354;2024-02-04T00:13:42;95557.59;;;3.37;80.70
7834;BME280;3962;42.696;23.354;2024-02-04T00:16:09;95550.47;;;5.29;81.77
7834;BME280;3962;42.696;23.354;2024-02-04T00:18:36;95547.09;;;6.10;78.89
7834;BME280;3962;42.696;23.354;2024-02-04T00:21:03;95550.09;;;6.51;76.75
7834;BME280;3962;42.696;23.354;2024-02-04T00:23:31;95545.47;;;6.88;75.20
7834;BME280;3962;42.696;23.354;2024-02-04T00:25:58;95551.72;;;7.19;73.97
7834;BME280;3962;42.696;23.354;2024-02-04T00:28:24;95545.81;;;7.38;73.19
7834;BME280;3962;42.696;23.354;2024-02-04T00:30:53;95552.56;;;7.42;72.76
7834;BME280;3962;42.696;23.354;2024-02-04T00:33:21;95548.00;;;7.44;72.61
7834;BME280;3962;42.696;23.354;2024-02-04T00:35:48;95546.44;;;7.52;71.65
7834;BME280;3962;42.696;23.354;2024-02-04T00:38:14;95543.88;;;7.62;71.79
7834;BME280;3962;42.696;23.354;2024-02-04T00:40:43;95540.03;;;7.66;72.03
7834;BME280;3962;42.696;23.354;2024-02-04T00:43:10;95536.88;;;7.72;70.83
7834;BME280;3962;42.696;23.354;2024-02-04T00:45:36;95519.06;;;7.74;70.96
7834;BME280;3962;42.696;23.354;2024-02-04T00:48:04;95530.13;;;7.79;70.97
7834;BME280;3962;42.696;23.354;2024-02-04T00:50:30;95553.31;;;7.86;70.77
7834;BME280;3962;42.696;23.354;2024-02-04T00:52:57;95550.78;;;7.85;70.78
7834;BME280;3962;42.696;23.354;2024-02-04T00:55:24;95545.66;;;7.83;70.22
7834;BME280;3962;42.696;23.354;2024-02-04T00:57:52;95554.41;;;7.84;71.12
7834;BME280;3962;42.696;23.354;2024-02-04T01:00:21;95546.56;;;7.82;70.78
7834;BME280;3962;42.696;23.354;2024-02-04T01:02:47;95548.91;;;7.76;71.12
7834;BME280;3962;42.696;23.354;2024-02-04T01:05:14;95547.59;;;7.70;70.95
7834;BME280;3962;42.696;23.354;2024-02-04T01:07:41;95546.50;;;7.73;71.94
7834;BME280;3962;42.696;23.354;2024-02-04T01:10:08;95545.78;;;7.71;71.47
7834;BME280;3962;42.696;23.354;2024-02-04T01:12:35;95547.31;;;7.73;71.82
7834;BME280;3962;42.696;23.354;2024-02-04T01:15:04;95554.56;;;7.71;71.64
7834;BME280;3962;42.696;23.354;2024-02-04T01:17:31;95551.09;;;7.71;71.89
7834;BME280;3962;42.696;23.354;2024-02-04T01:19:59;95552.03;;;7.70;71.81
7834;BME280;3962;42.696;23.354;2024-02-04T01:22:26;95554.94;;;7.67;71.43
7834;BME280;3962;42.696;23.354;2024-02-04T01:24:52;95549.91;;;7.64;72.28
7834;BME280;3962;42.696;23.354;2024-02-04T01:27:19;95550.97;;;7.61;72.07
7834;BME280;3962;42.696;23.354;2024-02-04T01:29:46;95546.41;;;7.63;72.08
7834;BME280;3962;42.696;23.354;2024-02-04T01:32:14;95537.38;;;7.66;71.75
7834;BME280;3962;42.696;23.354;2024-02-04T01:34:41;95539.31;;;7.64;72.64
7834;BME280;3962;42.696;23.354;2024-02-04T01:37:08;95540.84;;;7.66;72.16
7834;BME280;3962;42.696;23.354;2024-02-04T01:39:35;95540.03;;;7.66;72.30
7834;BME280;3962;42.696;23.354;2024-02-04T01:42:02;95536.13;;;7.70;73.02
7834;BME280;3962;42.696;23.354;2024-02-04T01:44:28;95531.44;;;7.73;72.71
7834;BME280;3962;42.696;23.354;2024-02-04T01:46:55;95528.41;;;7.78;73.25
7834;BME280;3962;42.696;23.354;2024-02-04T01:49:25;95526.28;;;7.72;72.74
7834;BME280;3962;42.696;23.354;2024-02-04T01:51:53;95519.31;;;7.71;73.14
7834;BME280;3962;42.696;23.354;2024-02-04T01:54:22;95518.56;;;7.80;72.78
7834;BME280;3962;42.696;23.354;2024-02-04T01:56:52;95516.13;;;7.88;72.82
7834;BME280;3962;42.696;23.354;2024-02-04T01:59:20;95513.81;;;7.94;73.08
7834;BME280;3962;42.696;23.354;2024-02-04T02:01:53;95515.00;;;8.01;72.75
7834;BME280;3962;42.696;23.354;2024-02-04T02:04:21;95503.75;;;8.09;72.38
7834;BME280;3962;42.696;23.354;2024-02-04T02:06:49;95517.06;;;8.18;72.67
7834;BME280;3962;42.696;23.354;2024-02-04T02:09:17;95513.50;;;8.19;72.02
7834;BME280;3962;42.696;23.354;2024-02-04T02:11:46;95504.22;;;8.14;72.81
7834;BME280;3962;42.696;23.354;2024-02-04T02:14:17;95497.34;;;8.22;73.09
7834;BME280;3962;42.696;23.354;2024-02-04T02:16:45;95495.63;;;8.21;72.77
7834;BME280;3962;42.696;23.354;2024-02-04T02:19:26;95489.88;;;8.16;72.51
7834;BME280;3962;42.696;23.354;2024-02-04T02:22:06;95500.44;;;8.27;72.07
7834;BME280;3962;42.696;23.354;2024-02-04T02:24:43;95502.38;;;8.25;72.76
7834;BME280;3962;42.696;23.354;2024-02-04T02:27:13;95506.13;;;8.23;72.89
7834;BME280;3962;42.696;23.354;2024-02-04T02:29:40;95504.91;;;8.27;72.51
7834;BME280;3962;42.696;23.354;2024-02-04T02:32:07;95492.75;;;8.24;72.48
7834;BME280;3962;42.696;23.354;2024-02-04T02:34:33;95497.09;;;8.25;72.21
7834;BME280;3962;42.696;23.354;2024-02-04T02:37:08;95500.00;;;8.22;72.23
7834;BME280;3962;42.696;23.354;2024-02-04T02:39:39;95500.44;;;8.27;72.78
7834;BME280;3962;42.696;23.354;2024-02-04T02:42:09;95494.75;;;8.32;72.72
7834;BME280;3962;42.696;23.354;2024-02-04T02:44:38;95488.34;;;8.34;72.46
7834;BME280;3962;42.696;23.354;2024-02-04T02:47:06;95483.63;;;8.38;72.71
7834;BME280;3962;42.696;23.354;2024-02-04T02:49:34;95481.84;;;8.38;71.98
7834;BME280;3962;42.696;23.354;2024-02-04T02:52:00;95496.88;;;8.38;72.25
7834;BME280;3962;42.696;23.354;2024-02-04T02:54:27;95493.84;;;8.42;71.73
7834;BME280;3962;42.696;23.354;2024-02-04T02:56:54;95486.00;;;8.41;71.60
7834;BME280;3962;42.696;23.354;2024-02-04T02:59:22;95503.25;;;8.46;71.39
7834;BME280;3962;42.696;23.354;2024-02-04T03:01:49;95503.94;;;8.48;71.08
7834;BME280;3962;42.696;23.354;2024-02-04T03:04:16;95500.31;;;8.49;71.87
7834;BME280;3962;42.696;23.354;2024-02-04T03:06:42;95497.59;;;8.40;71.38
7834;BME280;3962;42.696;23.354;2024-02-04T03:09:09;95499.28;;;8.41;71.66
7834;BME280;3962;42.696;23.354;2024-02-04T03:11:36;95504.06;;;8.47;71.30
7834;BME280;3962;42.696;23.354;2024-02-04T03:14:03;95507.56;;;8.47;71.77
7834;BME280;3962;42.696;23.354;2024-02-04T03:16:31;95498.06;;;8.45;71.94
7834;BME280;3962;42.696;23.354;2024-02-04T03:18:58;95504.06;;;8.47;71.61
7834;BME280;3962;42.696;23.354;2024-02-04T03:21:25;95503.81;;;8.50;71.60
7834;BME280;3962;42.696;23.354;2024-02-04T03:23:51;95504.91;;;8.47;71.59
7834;BME280;3962;42.696;23.354;2024-02-04T03:26:18;95495.13;;;8.48;71.71
7834;BME280;3962;42.696;23.354;2024-02-04T03:28:45;95484.91;;;8.43;72.00
7834;BME280;3962;42.696;23.354;2024-02-04T03:31:19;95500.97;;;8.42;72.21
7834;BME280;3962;42.696;23.354;2024-02-04T03:33:47;95489.22;;;8.35;71.69
7834;BME280;3962;42.696;23.354;2024-02-04T03:36:22;95483.31;;;8.31;72.54
7834;BME280;3962;42.696;23.354;2024-02-04T03:38:49;95465.94;;;8.38;71.97
7834;BME280;3962;42.696;23.354;2024-02-04T03:41:16;95476.16;;;8.43;72.71
7834;BME280;3962;42.696;23.354;2024-02-04T03:43:43;95461.75;;;8.45;72.34
7834;BME280;3962;42.696;23.354;2024-02-04T03:46:13;95456.22;;;8.48;71.87
7834;BME280;3962;42.696;23.354;2024-02-04T03:48:40;95449.34;;;8.46;72.30
7834;BME280;3962;42.696;23.354;2024-02-04T03:51:08;95442.09;;;8.48;72.12
7834;BME280;3962;42.696;23.354;2024-02-04T03:53:35;95445.50;;;8.50;71.97
7834;BME280;3962;42.696;23.354;2024-02-04T03:56:00;95450.63;;;8.51;71.79
7834;BME280;3962;42.696;23.354;2024-02-04T03:58:27;95446.19;;;8.52;72.08
7834;BME280;3962;42.696;23.354;2024-02-04T04:00:55;95454.28;;;8.50;72.25
7834;BME280;3962;42.696;23.354;2024-02-04T04:03:22;95449.25;;;8.47;72.05
7834;BME280;3962;42.696;23.354;2024-02-04T04:05:49;95450.34;;;8.45;71.99
7834;BME280;3962;42.696;23.354;2024-02-04T04:08:18;95465.25;;;8.46;72.59
7834;BME280;3962;42.696;23.354;2024-02-04T04:10:44;95465.25;;;8.46;72.50
7834;BME280;3962;42.696;23.354;2024-02-04T04:13:12;95450.34;;;8.45;72.79
7834;BME280;3962;42.696;23.354;2024-02-04T04:15:39;95453.81;;;8.45;72.94
7834;BME280;3962;42.696;23.354;2024-02-04T04:18:07;95449.94;;;8.49;72.87
7834;BME280;3962;42.696;23.354;2024-02-04T04:20:36;95457.78;;;8.51;73.03
7834;BME280;3962;42.696;23.354;2024-02-04T04:23:03;95444.50;;;8.51;72.68
7834;BME280;3962;42.696;23.354;2024-02-04T04:25:31;95454.53;;;8.47;73.21
7834;BME280;3962;42.696;23.354;2024-02-04T04:27:57;95451.16;;;8.45;72.86
7834;BME280;3962;42.696;23.354;2024-02-04T04:30:24;95455.19;;;8.40;73.49
7834;BME280;3962;42.696;23.354;2024-02-04T04:32:51;95462.72;;;8.44;72.79
7834;BME280;3962;42.696;23.354;2024-02-04T04:35:18;95465.25;;;8.46;72.99
7834;BME280;3962;42.696;23.354;2024-02-04T04:37:44;95464.56;;;8.44;72.33
7834;BME280;3962;42.696;23.354;2024-02-04T04:40:12;95471.28;;;8.48;72.45
7834;BME280;3962;42.696;23.354;2024-02-04T04:42:40;95475.09;;;8.55;73.03
7834;BME280;3962;42.696;23.354;2024-02-04T04:45:07;95469.38;;;8.59;72.57
7834;BME280;3962;42.696;23.354;2024-02-04T04:47:36;95479.59;;;8.64;72.49
7834;BME280;3962;42.696;23.354;2024-02-04T04:50:04;95465.38;;;8.65;71.89
7834;BME280;3962;42.696;23.354;2024-02-04T04:52:31;95475.34;;;8.72;72.53
7834;BME280;3962;42.696;23.354;2024-02-04T04:54:58;95468.34;;;8.71;72.06
7834;BME280;3962;42.696;23.354;2024-02-04T04:57:25;95467.25;;;8.74;72.10
7834;BME280;3962;42.696;23.354;2024-02-04T04:59:53;95468.47;;;8.70;71.67
7834;BME280;3962;42.696;23.354;2024-02-04T05:02:20;95463.97;;;8.61;72.50
7834;BME280;3962;42.696;23.354;2024-02-04T05:04:46;95462.00;;;8.63;72.34
7834;BME280;3962;42.696;23.354;2024-02-04T05:07:14;95465.38;;;8.65;73.02
7834;BME280;3962;42.696;23.354;2024-02-04T05:09:40;95460.41;;;8.71;72.71
7834;BME280;3962;42.696;23.354;2024-02-04T05:12:08;95460.13;;;8.74;72.72
7834;BME280;3962;42.696;23.354;2024-02-04T05:14:35;95458.31;;;8.75;72.22
7834;BME280;3962;42.696;23.354;2024-02-04T05:17:04;95461.69;;;8.77;72.45
7834;BME280;3962;42.696;23.354;2024-02-04T05:19:31;95459.88;;;8.77;71.95
7834;BME280;3962;42.696;23.354;2024-02-04T05:21:57;95470.63;;;8.76;71.94
7834;BME280;3962;42.696;23.354;2024-02-04T05:24:24;95473.31;;;8.65;72.13
7834;BME280;3962;42.696;23.354;2024-02-04T05:26:51;95468.88;;;8.65;71.93
7834;BME280;3962;42.696;23.354;2024-02-04T05:29:18;95473.47;;;8.63;71.89
7834;BME280;3962;42.696;23.354;2024-02-04T05:31:44;95478.00;;;8.72;71.70
7834;BME280;3962;42.696;23.354;2024-02-04T05:34:13;95475.72;;;8.68;72.49
7834;BME280;3962;42.696;23.354;2024-02-04T05:36:40;95485.50;;;8.67;71.73
7834;BME280;3962;42.696;23.354;2024-02-04T05:39:10;95475.00;;;8.86;72.16
7834;BME280;3962;42.696;23.354;2024-02-04T05:41:38;95478.75;;;8.84;71.86
7834;BME280;3962;42.696;23.354;2024-02-04T05:44:05;95480.88;;;8.90;71.52
7834;BME280;3962;42.696;23.354;2024-02-04T05:46:32;95479.44;;;8.86;71.75
7834;BME280;3962;42.696;23.354;2024-02-04T05:48:58;95491.72;;;8.77;71.13
7834;BME280;3962;42.696;23.354;2024-02-04T05:51:27;95487.03;;;8.70;71.63
7834;BME280;3962;42.696;23.354;2024-02-04T05:53:54;95484.72;;;8.56;71.82
7834;BME280;3962;42.696;23.354;2024-02-04T05:56:21;95485.31;;;8.39;72.16
7834;BME280;3962;42.696;23.354;2024-02-04T05:58:47;95487.78;;;8.31;72.01
7834;BME280;3962;42.696;23.354;2024-02-04T06:01:15;95493.84;;;8.22;72.98
7834;BME280;3962;42.696;23.354;2024-02-04T06:03:42;95494.19;;;8.17;72.70
7834;BME280;3962;42.696;23.354;2024-02-04T06:06:09;95501.09;;;8.09;72.83
7834;BME280;3962;42.696;23.354;2024-02-04T06:08:42;95513.53;;;7.97;72.90
7834;BME280;3962;42.696;23.354;2024-02-04T06:11:10;95512.00;;;7.95;72.82
7834;BME280;3962;42.696;23.354;2024-02-04T06:13:38;95501.03;;;7.99;72.82
7834;BME280;3962;42.696;23.354;2024-02-04T06:16:05;95500.25;;;8.08;73.09
7834;BME280;3962;42.696;23.354;2024-02-04T06:18:32;95495.47;;;8.02;72.46
7834;BME280;3962;42.696;23.354;2024-02-04T06:20:59;95507.38;;;8.08;72.62
7834;BME280;3962;42.696;23.354;2024-02-04T06:23:25;95505.56;;;8.08;73.27
7834;BME280;3962;42.696;23.354;2024-02-04T06:25:54;95516.22;;;8.18;72.20
7834;BME280;3962;42.696;23.354;2024-02-04T06:28:20;95526.63;;;8.21;72.46
7834;BME280;3962;42.696;23.354;2024-02-04T06:30:48;95525.66;;;8.22;72.18
7834;BME280;3962;42.696;23.354;2024-02-04T06:33:15;95543.50;;;8.20;72.46
7834;BME280;3962;42.696;23.354;2024-02-04T06:35:42;95540.06;;;8.18;71.89
7834;BME280;3962;42.696;23.354;2024-02-04T06:38:09;95530.34;;;8.18;72.77
7834;BME280;3962;42.696;23.354;2024-02-04T06:40:36;95540.91;;;8.29;71.58
7834;BME280;3962;42.696;23.354;2024-02-04T06:43:04;95539.31;;;8.38;71.44
7834;BME280;3962;42.696;23.354;2024-02-04T06:45:31;95547.19;;;8.49;71.20
7834;BME280;3962;42.696;23.354;2024-02-04T06:47:58;95546.06;;;8.62;71.08
7834;BME280;3962;42.696;23.354;2024-02-04T06:50:24;95542.25;;;8.76;70.43
7834;BME280;3962;42.696;23.354;2024-02-04T06:52:51;95522.19;;;8.83;70.32
7834;BME280;3962;42.696;23.354;2024-02-04T06:55:18;95520.28;;;8.94;70.12
7834;BME280;3962;42.696;23.354;2024-02-04T06:57:45;95522.72;;;9.07;70.25
7834;BME280;3962;42.696;23.354;2024-02-04T07:00:15;95523.72;;;9.15;70.03
7834;BME280;3962;42.696;23.354;2024-02-04T07:02:42;95526.44;;;9.25;69.62
7834;BME280;3962;42.696;23.354;2024-02-04T07:05:09;95526.03;;;9.29;69.13
7834;BME280;3962;42.696;23.354;2024-02-04T07:07:36;95536.94;;;9.36;69.01
7834;BME280;3962;42.696;23.354;2024-02-04T07:10:03;95532.13;;;9.50;70.74
7834;BME280;3962;42.696;23.354;2024-02-04T07:12:30;95531.19;;;10.48;68.69
7834;BME280;3962;42.696;23.354;2024-02-04T07:14:57;95538.31;;;10.66;66.33
7834;BME280;3962;42.696;23.354;2024-02-04T07:17:25;95534.13;;;10.64;67.91
7834;BME280;3962;42.696;23.354;2024-02-04T07:19:52;95541.66;;;10.59;66.65
7834;BME280;3962;42.696;23.354;2024-02-04T07:22:19;95519.97;;;10.54;65.91
7834;BME280;3962;42.696;23.354;2024-02-04T07:24:46;95539.28;;;10.65;65.78
7834;BME280;3962;42.696;23.354;2024-02-04T07:27:12;95531.31;;;11.30;66.88
7834;BME280;3962;42.696;23.354;2024-02-04T07:29:40;95525.78;;;11.04;64.93
7834;BME280;3962;42.696;23.354;2024-02-04T07:32:06;95530.72;;;10.62;65.56
7834;BME280;3962;42.696;23.354;2024-02-04T07:34:35;95531.75;;;10.23;67.20
7834;BME280;3962;42.696;23.354;2024-02-04T07:37:03;95529.78;;;10.44;66.80
7834;BME280;3962;42.696;23.354;2024-02-04T07:39:29;95534.97;;;10.45;66.46
7834;BME280;3962;42.696;23.354;2024-02-04T07:41:57;95527.69;;;10.57;65.67
7834;BME280;3962;42.696;23.354;2024-02-04T07:44:26;95527.47;;;10.01;66.10
7834;BME280;3962;42.696;23.354;2024-02-04T07:46:53;95526.19;;;9.77;67.32
7834;BME280;3962;42.696;23.354;2024-02-04T07:49:21;95518.59;;;9.63;67.92
7834;BME280;3962;42.696;23.354;2024-02-04T07:51:51;95535.59;;;9.51;68.34
7834;BME280;3962;42.696;23.354;2024-02-04T07:54:18;95547.66;;;9.55;68.29
7834;BME280;3962;42.696;23.354;2024-02-04T07:56:45;95539.00;;;9.53;67.85
7834;BME280;3962;42.696;23.354;2024-02-04T07:59:12;95548.81;;;9.71;68.14
7834;BME280;3962;42.696;23.354;2024-02-04T08:01:40;95549.69;;;9.81;67.49
7834;BME280;3962;42.696;23.354;2024-02-04T08:04:07;95560.63;;;9.97;67.02
7834;BME280;3962;42.696;23.354;2024-02-04T08:06:37;95552.22;;;9.92;66.78
7834;BME280;3962;42.696;23.354;2024-02-04T08:09:06;95551.09;;;9.85;66.28
7834;BME280;3962;42.696;23.354;2024-02-04T08:11:33;95550.31;;;10.04;66.33
7834;BME280;3962;42.696;23.354;2024-02-04T08:14:00;95547.41;;;10.26;65.62
7834;BME280;3962;42.696;23.354;2024-02-04T08:16:28;95551.63;;;10.28;65.08
7834;BME280;3962;42.696;23.354;2024-02-04T08:18:55;95543.06;;;10.44;64.63
7834;BME280;3962;42.696;23.354;2024-02-04T08:21:22;95551.34;;;10.41;64.70
7834;BME280;3962;42.696;23.354;2024-02-04T08:23:50;95560.44;;;10.19;65.19
7834;BME280;3962;42.696;23.354;2024-02-04T08:26:18;95555.38;;;10.16;65.35
7834;BME280;3962;42.696;23.354;2024-02-04T08:28:45;95552.88;;;10.43;64.93
7834;BME280;3962;42.696;23.354;2024-02-04T08:31:12;95548.53;;;10.33;64.86
7834;BME280;3962;42.696;23.354;2024-02-04T08:33:39;95552.72;;;10.26;65.14
7834;BME280;3962;42.696;23.354;2024-02-04T08:36:06;95561.28;;;10.39;64.88
7834;BME280;3962;42.696;23.354;2024-02-04T08:38:35;95548.41;;;10.44;65.39
7834;BME280;3962;42.696;23.354;2024-02-04T08:41:03;95554.41;;;10.46;65.30
7834;BME280;3962;42.696;23.354;2024-02-04T08:43:31;95540.38;;;10.82;63.75
7834;BME280;3962;42.696;23.354;2024-02-04T08:45:58;95550.91;;;10.83;64.33
7834;BME280;3962;42.696;23.354;2024-02-04T08:48:25;95550.78;;;11.30;63.96
7834;BME280;3962;42.696;23.354;2024-02-04T08:50:52;95547.03;;;11.96;61.40
7834;BME280;3962;42.696;23.354;2024-02-04T08:53:20;95542.25;;;11.63;61.68
7834;BME280;3962;42.696;23.354;2024-02-04T08:55:50;95542.22;;;11.27;62.98
7834;BME280;3962;42.696;23.354;2024-02-04T08:58:18;95528.44;;;11.04;63.23
7834;BME280;3962;42.696;23.354;2024-02-04T09:00:47;95535.91;;;10.63;64.61
7834;BME280;3962;42.696;23.354;2024-02-04T09:03:13;95525.28;;;10.63;65.60
7834;BME280;3962;42.696;23.354;2024-02-04T09:05:40;95527.25;;;10.71;65.06
7834;BME280;3962;42.696;23.354;2024-02-04T09:08:07;95511.84;;;10.74;65.16
7834;BME280;3962;42.696;23.354;2024-02-04T09:10:36;95524.44;;;10.72;65.01
7834;BME280;3962;42.696;23.354;2024-02-04T09:13:03;95518.53;;;10.88;65.03
7834;BME280;3962;42.696;23.354;2024-02-04T09:15:30;95532.97;;;10.85;64.60
7834;BME280;3962;42.696;23.354;2024-02-04T09:17:58;95525.78;;;10.85;64.84
7834;BME280;3962;42.696;23.354;2024-02-04T09:20:25;95526.53;;;10.69;64.90
7834;BME280;3962;42.696;23.354;2024-02-04T09:22:52;95531.84;;;10.69;65.62
7834;BME280;3962;42.696;23.354;2024-02-04T09:25:19;95536.91;;;10.62;65.66
7834;BME280;3962;42.696;23.354;2024-02-04T09:27:46;95560.72;;;10.64;66.26
7834;BME280;3962;42.696;23.354;2024-02-04T09:30:13;95561.25;;;10.77;65.44
7834;BME280;3962;42.696;23.354;2024-02-04T09:32:40;95553.00;;;10.70;65.33
7834;BME280;3962;42.696;23.354;2024-02-04T09:35:09;95556.78;;;10.77;65.76
7834;BME280;3962;42.696;23.354;2024-02-04T09:37:36;95545.28;;;11.41;63.74
7834;BME280;3962;42.696;23.354;2024-02-04T09:40:03;95532.78;;;11.78;62.02
7834;BME280;3962;42.696;23.354;2024-02-04T09:42:31;95538.50;;;12.28;60.83
7834;BME280;3962;42.696;23.354;2024-02-04T09:44:58;95556.34;;;12.45;60.95
7834;BME280;3962;42.696;23.354;2024-02-04T09:47:25;95554.00;;;12.77;59.37
7834;BME280;3962;42.696;23.354;2024-02-04T09:49:52;95550.72;;;12.83;58.98
7834;BME280;3962;42.696;23.354;2024-02-04T09:52:28;95545.31;;;12.75;59.23
7834;BME280;3962;42.696;23.354;2024-02-04T09:54:58;95541.72;;;12.66;59.78
7834;BME280;3962;42.696;23.354;2024-02-04T09:57:26;95545.44;;;12.73;59.83
7834;BME280;3962;42.696;23.354;2024-02-04T09:59:53;95534.53;;;12.84;59.23
7834;BME280;3962;42.696;23.354;2024-02-04T10:02:20;95538.47;;;13.15;59.05
7834;BME280;3962;42.696;23.354;2024-02-04T10:04:48;95523.06;;;13.09;58.82
7834;BME280;3962;42.696;23.354;2024-02-04T10:07:15;95553.22;;;13.02;59.04
7834;BME280;3962;42.696;23.354;2024-02-04T10:09:45;95553.06;;;12.86;59.45
7834;BME280;3962;42.696;23.354;2024-02-04T10:12:13;95540.41;;;12.88;60.10
7834;BME280;3962;42.696;23.354;2024-02-04T10:14:40;95540.03;;;13.00;59.50
7834;BME280;3962;42.696;23.354;2024-02-04T10:17:07;95554.13;;;12.93;59.75
7834;BME280;3962;42.696;23.354;2024-02-04T10:19:34;95550.94;;;12.37;61.48
7834;BME280;3962;42.696;23.354;2024-02-04T10:22:01;95550.34;;;12.60;61.72
7834;BME280;3962;42.696;23.354;2024-02-04T10:24:28;95542.34;;;12.60;61.77
7834;BME280;3962;42.696;23.354;2024-02-04T10:26:57;95538.75;;;12.69;61.49
7834;BME280;3962;42.696;23.354;2024-02-04T10:29:24;95539.81;;;12.76;60.59
7834;BME280;3962;42.696;23.354;2024-02-04T10:31:53;95539.44;;;12.54;61.10
7834;BME280;3962;42.696;23.354;2024-02-04T10:34:20;95544.00;;;12.44;61.79
7834;BME280;3962;42.696;23.354;2024-02-04T10:36:47;95531.72;;;12.33;62.15
7834;BME280;3962;42.696;23.354;2024-02-04T10:39:14;95537.84;;;11.99;62.99
7834;BME280;3962;42.696;23.354;2024-02-04T10:41:47;95544.44;;;11.77;63.99
7834;BME280;3962;42.696;23.354;2024-02-04T10:44:17;95545.91;;;11.62;64.75
7834;BME280;3962;42.696;23.354;2024-02-04T10:46:47;95542.53;;;11.70;64.94
7834;BME280;3962;42.696;23.354;2024-02-04T10:49:15;95543.75;;;11.75;64.81
7834;BME280;3962;42.696;23.354;2024-02-04T10:51:42;95543.56;;;11.59;64.77
7834;BME280;3962;42.696;23.354;2024-02-04T10:54:11;95543.34;;;11.70;64.55
7834;BME280;3962;42.696;23.354;2024-02-04T10:56:42;95536.31;;;11.79;64.40
7834;BME280;3962;42.696;23.354;2024-02-04T10:59:10;95549.06;;;12.02;64.08
7834;BME280;3962;42.696;23.354;2024-02-04T11:01:39;95542.22;;;12.00;63.54
7834;BME280;3962;42.696;23.354;2024-02-04T11:04:08;95545.94;;;12.07;62.76
7834;BME280;3962;42.696;23.354;2024-02-04T11:06:37;95545.41;;;12.03;63.26
7834;BME280;3962;42.696;23.354;2024-02-04T11:09:08;95554.16;;;11.96;63.92
7834;BME280;3962;42.696;23.354;2024-02-04T11:11:38;95563.13;;;12.04;63.22
7834;BME280;3962;42.696;23.354;2024-02-04T11:14:08;95533.28;;;11.91;63.67
7834;BME280;3962;42.696;23.354;2024-02-04T11:17:02;95541.41;;;11.90;63.84
7834;BME280;3962;42.696;23.354;2024-02-04T11:19:38;95537.50;;;12.11;63.68
7834;BME280;3962;42.696;23.354;2024-02-04T11:22:19;95518.53;;;12.14;63.38
7834;BME280;3962;42.696;23.354;2024-02-04T11:25:03;95510.16;;;12.27;62.66
7834;BME280;3962;42.696;23.354;2024-02-04T11:27:36;95517.19;;;12.45;61.94
7834;BME280;3962;42.696;23.354;2024-02-04T11:30:04;95501.38;;;12.69;61.10
7834;BME280;3962;42.696;23.354;2024-02-04T11:32:34;95504.56;;;12.73;61.51
7834;BME280;3962;42.696;23.354;2024-02-04T11:35:02;95512.75;;;12.54;61.13
7834;BME280;3962;42.696;23.354;2024-02-04T11:37:33;95513.59;;;12.37;61.77
7834;BME280;3962;42.696;23.354;2024-02-04T11:40:00;95499.63;;;12.60;61.61
7834;BME280;3962;42.696;23.354;2024-02-04T11:42:31;95497.66;;;12.62;61.50
7834;BME280;3962;42.696;23.354;2024-02-04T11:45:08;95497.56;;;12.54;61.91
7834;BME280;3962;42.696;23.354;2024-02-04T11:47:37;95490.84;;;12.50;61.72
7834;BME280;3962;42.696;23.354;2024-02-04T11:50:11;95492.63;;;12.42;61.53
7834;BME280;3962;42.696;23.354;2024-02-04T11:52:39;95485.28;;;12.61;61.84
7834;BME280;3962;42.696;23.354;2024-02-04T11:55:13;95474.81;;;12.68;61.52
7834;BME280;3962;42.696;23.354;2024-02-04T11:57:40;95461.47;;;12.68;60.84
7834;BME280;3962;42.696;23.354;2024-02-04T12:00:09;95459.75;;;12.59;61.36
7834;BME280;3962;42.696;23.354;2024-02-04T12:02:37;95439.44;;;12.66;61.52
7834;BME280;3962;42.696;23.354;2024-02-04T12:05:05;95442.69;;;12.77;60.33
7834;BME280;3962;42.696;23.354;2024-02-04T12:07:32;95459.09;;;12.82;60.13
7834;BME280;3962;42.696;23.354;2024-02-04T12:09:59;95453.97;;;12.89;59.98
7834;BME280;3962;42.696;23.354;2024-02-04T12:12:26;95465.97;;;13.10;59.47
7834;BME280;3962;42.696;23.354;2024-02-04T12:14:53;95469.88;;;13.24;58.79
7834;BME280;3962;42.696;23.354;2024-02-04T12:17:21;95475.34;;;13.48;58.35
7834;BME280;3962;42.696;23.354;2024-02-04T12:19:49;95455.56;;;13.33;58.18
7834;BME280;3962;42.696;23.354;2024-02-04T12:22:16;95467.75;;;13.27;57.63
7834;BME280;3962;42.696;23.354;2024-02-04T12:24:44;95455.34;;;13.18;58.11
7834;BME280;3962;42.696;23.354;2024-02-04T12:27:15;95447.38;;;13.01;58.91
7834;BME280;3962;42.696;23.354;2024-02-04T12:29:42;95460.31;;;13.13;58.53
7834;BME280;3962;42.696;23.354;2024-02-04T12:32:09;95453.34;;;13.20;57.77
7834;BME280;3962;42.696;23.354;2024-02-04T12:34:38;95455.91;;;13.04;58.21
7834;BME280;3962;42.696;23.354;2024-02-04T12:37:07;95464.69;;;13.14;58.16
7834;BME280;3962;42.696;23.354;2024-02-04T12:39:34;95454.59;;;13.34;57.85
7834;BME280;3962;42.696;23.354;2024-02-04T12:42:01;95451.06;;;13.33;57.53
7834;BME280;3962;42.696;23.354;2024-02-04T12:44:28;95447.78;;;13.39;57.58
7834;BME280;3962;42.696;23.354;2024-02-04T12:46:55;95436.78;;;13.50;57.35
7834;BME280;3962;42.696;23.354;2024-02-04T12:49:22;95440.00;;;13.62;57.04
7834;BME280;3962;42.696;23.354;2024-02-04T12:51:50;95443.72;;;13.35;57.32
7834;BME280;3962;42.696;23.354;2024-02-04T12:54:19;95438.38;;;13.02;57.69
7834;BME280;3962;42.696;23.354;2024-02-04T12:56:48;95429.59;;;12.92;58.73
7834;BME280;3962;42.696;23.354;2024-02-04T12:59:25;95435.50;;;12.78;58.54
7834;BME280;3962;42.696;23.354;2024-02-04T13:01:54;95419.34;;;12.79;58.96
7834;BME280;3962;42.696;23.354;2024-02-04T13:04:24;95433.53;;;12.37;60.16
7834;BME280;3962;42.696;23.354;2024-02-04T13:06:51;95440.81;;;12.27;60.09
7834;BME280;3962;42.696;23.354;2024-02-04T13:09:20;95446.03;;;12.97;58.67
7834;BME280;3962;42.696;23.354;2024-02-04T13:11:48;95448.16;;;13.19;58.07
7834;BME280;3962;42.696;23.354;2024-02-04T13:14:15;95439.00;;;13.29;57.67
7834;BME280;3962;42.696;23.354;2024-02-04T13:16:42;95462.47;;;13.43;57.68
7834;BME280;3962;42.696;23.354;2024-02-04T13:19:09;95446.78;;;13.40;56.64
7834;BME280;3962;42.696;23.354;2024-02-04T13:21:36;95471.19;;;13.45;56.49